Time;durP1;ratioP1;P1;durP2;ratioP2;P2;SDS_P1;SDS_P2;PMS_P1;PMS_P2;Temp;Humidity;BMP_temperature;BMP_pressure;BME280_temperature;BME280_humidity;BME280_pressure;Samples;Min_cycle;Max_cycle;Signal;HPM_P1;HPM_P2
2021/05/12 00:01:34;;;;;;;25.48;17.65;;;11.80;99.90;;;;;;5145011;27;20038;-84
2021/05/12 00:04:00;;;;;;;33.78;19.38;;;11.80;99.90;;;;;;5129070;27;20109;-84
2021/05/12 00:06:26;;;;;;;31.38;18.70;;;11.80;99.90;;;;;;5152122;27;20122;-84
2021/05/12 00:08:52;;;;;;;32.97;19.83;;;11.80;99.90;;;;;;5133980;27;20485;-84
2021/05/12 00:11:18;;;;;;;34.13;20.33;;;11.70;99.90;;;;;;5144894;27;20454;-84
2021/05/12 00:13:44;;;;;;;29.27;19.02;;;11.60;99.90;;;;;;5130123;27;20035;-84
2021/05/12 00:16:11;;;;;;;33.60;20.27;;;11.70;99.90;;;;;;5122791;27;20023;-84
2021/05/12 00:18:40;;;;;;;32.60;19.55;;;11.70;99.90;;;;;;5125664;27;20113;-81
2021/05/12 00:21:10;;;;;;;31.02;20.75;;;11.60;99.90;;;;;;5130053;27;20081;-84
2021/05/12 00:23:49;;;;;;;27.85;19.55;;;11.60;99.90;;;;;;5129829;27;20054;-84
2021/05/12 00:26:15;;;;;;;31.48;20.42;;;11.70;99.90;;;;;;5114054;27;20098;-84
2021/05/12 00:28:41;;;;;;;34.92;21.00;;;11.70;99.90;;;;;;5151050;27;20414;-84
2021/05/12 00:31:07;;;;;;;33.75;21.67;;;11.60;99.90;;;;;;5124301;27;20477;-84
2021/05/12 00:33:39;;;;;;;34.22;20.90;;;11.60;99.90;;;;;;5130242;27;20049;-84
2021/05/12 00:36:05;;;;;;;41.05;20.25;;;11.60;99.90;;;;;;5144943;27;20034;-84
2021/05/12 00:38:31;;;;;;;31.73;20.83;;;11.50;99.90;;;;;;5146724;27;20343;-84
2021/05/12 00:40:57;;;;;;;31.90;20.92;;;11.60;99.90;;;;;;5126185;27;20053;-84
2021/05/12 00:43:23;;;;;;;34.75;21.08;;;11.60;99.90;;;;;;5127144;27;20533;-84
2021/05/12 00:45:49;;;;;;;37.03;22.92;;;11.60;99.90;;;;;;5123653;27;20035;-84
2021/05/12 00:48:14;;;;;;;38.10;22.95;;;11.60;99.90;;;;;;5127848;27;20409;-84
2021/05/12 00:50:40;;;;;;;37.30;23.25;;;11.60;99.90;;;;;;5144647;27;20030;-84
2021/05/12 00:53:07;;;;;;;37.00;23.00;;;11.60;99.90;;;;;;5128077;27;20039;-84
2021/05/12 00:55:33;;;;;;;41.50;25.08;;;11.60;99.90;;;;;;5145482;27;20450;-83
2021/05/12 00:57:59;;;;;;;38.00;24.10;;;11.50;99.90;;;;;;5127150;27;20153;-84
2021/05/12 01:00:29;;;;;;;45.53;25.88;;;11.60;99.90;;;;;;5126154;27;20060;-84
2021/05/12 01:02:55;;;;;;;42.42;25.95;;;11.50;99.90;;;;;;5127320;27;20031;-84
2021/05/12 01:05:35;;;;;;;40.45;25.60;;;11.50;99.90;;;;;;5146410;27;20105;-84
2021/05/12 01:08:03;;;;;;;43.53;26.25;;;11.50;99.90;;;;;;5131248;27;20042;-84
2021/05/12 01:10:28;;;;;;;44.35;25.55;;;11.60;99.90;;;;;;5125376;27;20035;-84
2021/05/12 01:12:54;;;;;;;49.25;28.40;;;11.50;99.90;;;;;;5120819;27;20451;-81
2021/05/12 01:15:21;;;;;;;50.45;30.50;;;11.50;99.90;;;;;;5123793;27;20577;-81
2021/05/12 01:17:47;;;;;;;61.53;31.75;;;11.50;99.90;;;;;;5112185;27;20150;-81
2021/05/12 01:20:13;;;;;;;58.65;31.63;;;11.50;99.90;;;;;;5123906;27;20039;-81
2021/05/12 01:22:40;;;;;;;64.07;32.42;;;11.50;99.90;;;;;;5152579;27;20530;-81
2021/05/12 01:25:09;;;;;;;61.45;33.17;;;11.50;99.90;;;;;;5106289;27;20058;-81
2021/05/12 01:27:35;;;;;;;66.07;32.60;;;11.40;99.90;;;;;;5147132;27;20127;-81
2021/05/12 01:30:01;;;;;;;65.85;34.33;;;11.40;99.90;;;;;;5123126;27;20474;-83
2021/05/12 01:32:34;;;;;;;67.20;34.45;;;11.40;99.90;;;;;;5144904;27;20035;-83
2021/05/12 01:35:06;;;;;;;65.07;33.95;;;11.40;99.90;;;;;;5120489;27;20070;-81
2021/05/12 01:37:32;;;;;;;58.13;33.55;;;11.40;99.90;;;;;;5147726;27;20478;-81
2021/05/12 01:39:57;;;;;;;57.80;32.78;;;11.50;99.90;;;;;;5107157;27;20053;-81
2021/05/12 01:42:23;;;;;;;56.75;32.75;;;11.50;99.90;;;;;;5109140;27;20095;-81
2021/05/12 01:44:49;;;;;;;68.82;33.55;;;11.50;99.90;;;;;;5104810;27;20050;-81
2021/05/12 01:47:14;;;;;;;61.03;32.65;;;11.60;99.90;;;;;;5145494;27;20035;-81
2021/05/12 01:49:40;;;;;;;58.40;32.45;;;11.50;99.90;;;;;;5122060;27;20393;-81
2021/05/12 01:52:06;;;;;;;54.25;32.20;;;11.60;99.90;;;;;;5123139;27;20031;-81
2021/05/12 01:54:32;;;;;;;63.75;32.38;;;11.60;99.90;;;;;;5144639;27;20026;-81
2021/05/12 01:56:57;;;;;;;65.07;32.50;;;11.50;99.90;;;;;;5121147;27;20457;-81
2021/05/12 01:59:23;;;;;;;62.80;33.10;;;11.60;99.90;;;;;;5123874;27;20043;-81
2021/05/12 02:01:49;;;;;;;67.47;33.70;;;11.60;99.90;;;;;;5125773;27;20027;-81
2021/05/12 02:04:15;;;;;;;63.33;33.90;;;11.60;99.90;;;;;;5147412;27;20134;-81
2021/05/12 02:06:41;;;;;;;67.82;35.55;;;11.60;99.90;;;;;;5144913;27;20145;-83
2021/05/12 02:09:08;;;;;;;67.32;35.17;;;11.60;99.90;;;;;;5118840;27;20035;-84
2021/05/12 02:11:35;;;;;;;75.15;37.17;;;11.60;99.90;;;;;;5148459;27;20083;-83
2021/05/12 02:14:01;;;;;;;71.07;35.83;;;11.50;99.90;;;;;;5122270;27;20036;-84
2021/05/12 02:16:27;;;;;;;69.22;34.38;;;11.50;99.90;;;;;;5130455;27;20077;-84
2021/05/12 02:18:53;;;;;;;77.47;35.70;;;11.50;99.90;;;;;;5146762;27;20446;-83
2021/05/12 02:21:19;;;;;;;77.38;37.00;;;11.50;99.90;;;;;;5125827;27;20501;-83
2021/05/12 02:23:44;;;;;;;70.55;36.92;;;11.50;99.90;;;;;;5124495;27;20425;-84
2021/05/12 02:26:10;;;;;;;80.38;37.35;;;11.60;99.90;;;;;;5124079;27;20053;-84
2021/05/12 02:28:36;;;;;;;81.85;37.75;;;11.60;99.90;;;;;;5125489;27;20471;-84
2021/05/12 02:31:02;;;;;;;95.50;38.83;;;11.50;99.90;;;;;;5142686;27;20046;-83
2021/05/12 02:33:27;;;;;;;98.30;40.03;;;11.40;99.90;;;;;;5128596;27;20498;-83
2021/05/12 02:35:53;;;;;;;100.47;39.83;;;11.50;99.90;;;;;;5122587;27;20038;-83
2021/05/12 02:38:19;;;;;;;85.13;37.88;;;11.50;99.90;;;;;;5127371;27;20461;-84
2021/05/12 02:40:45;;;;;;;89.43;38.28;;;11.40;99.90;;;;;;5131721;27;20076;-84
2021/05/12 02:43:10;;;;;;;94.50;38.63;;;11.50;99.90;;;;;;5147146;27;20473;-84
2021/05/12 02:45:36;;;;;;;75.35;33.88;;;11.50;99.90;;;;;;5117765;27;20027;-84
2021/05/12 02:48:04;;;;;;;82.32;34.25;;;11.60;99.90;;;;;;5110700;27;20134;-83
2021/05/12 02:50:38;;;;;;;74.78;33.42;;;11.50;99.90;;;;;;5127461;27;20050;-83
2021/05/12 02:53:07;;;;;;;76.80;32.75;;;11.50;99.90;;;;;;5124190;27;20042;-84
2021/05/12 02:55:34;;;;;;;67.15;31.63;;;11.60;99.90;;;;;;5135282;27;20035;-83
2021/05/12 02:58:00;;;;;;;70.78;32.88;;;11.60;99.90;;;;;;5130691;27;20046;-84
2021/05/12 03:00:29;;;;;;;69.30;31.83;;;11.50;99.90;;;;;;5154264;27;20117;-83
2021/05/12 03:02:55;;;;;;;69.28;31.85;;;11.60;99.90;;;;;;5154213;27;20474;-84
2021/05/12 03:05:21;;;;;;;67.40;31.52;;;11.50;99.90;;;;;;5151830;27;20035;-84
2021/05/12 03:07:47;;;;;;;66.60;31.30;;;11.50;99.90;;;;;;5142030;27;20071;-83
2021/05/12 03:10:16;;;;;;;71.82;31.27;;;11.50;99.90;;;;;;5126176;27;20054;-84
2021/05/12 03:12:41;;;;;;;72.90;32.70;;;11.50;99.90;;;;;;5142781;27;20041;-84
2021/05/12 03:15:11;;;;;;;77.75;34.28;;;11.50;99.90;;;;;;5127330;27;20034;-84
2021/05/12 03:17:38;;;;;;;78.55;34.75;;;11.50;99.90;;;;;;5140987;27;20498;-84
2021/05/12 03:20:04;;;;;;;76.40;31.77;;;11.50;99.90;;;;;;5148078;27;20069;-84
2021/05/12 03:22:30;;;;;;;77.07;33.70;;;11.50;99.90;;;;;;5146039;27;20432;-84
2021/05/12 03:24:56;;;;;;;71.50;33.47;;;11.50;99.90;;;;;;5149807;27;20037;-83
2021/05/12 03:27:22;;;;;;;72.50;32.78;;;11.60;99.90;;;;;;5127686;27;20526;-84
2021/05/12 03:29:47;;;;;;;67.03;31.67;;;11.50;99.90;;;;;;5147153;27;20074;-84
2021/05/12 03:32:13;;;;;;;73.55;34.03;;;11.60;99.90;;;;;;5126991;27;20027;-84
2021/05/12 03:34:39;;;;;;;70.80;32.60;;;11.60;99.90;;;;;;5128398;27;20035;-84
2021/05/12 03:37:05;;;;;;;72.55;31.90;;;11.50;99.90;;;;;;5147973;27;20038;-84
2021/05/12 03:39:31;;;;;;;72.38;32.67;;;11.60;99.90;;;;;;5149944;27;20043;-83
2021/05/12 03:41:56;;;;;;;71.60;33.17;;;11.50;99.90;;;;;;5128618;27;20055;-84
2021/05/12 03:44:23;;;;;;;75.38;33.60;;;11.60;99.90;;;;;;5151597;27;20371;-84
2021/05/12 03:46:48;;;;;;;80.40;33.15;;;11.50;99.90;;;;;;5126185;27;20038;-83
2021/05/12 03:49:14;;;;;;;76.13;33.58;;;11.50;99.90;;;;;;5127928;27;20043;-83
2021/05/12 03:51:40;;;;;;;75.13;34.83;;;11.50;99.90;;;;;;5127051;27;20366;-84
2021/05/12 03:54:06;;;;;;;80.93;33.17;;;11.50;99.90;;;;;;5126829;27;20043;-84
2021/05/12 03:56:32;;;;;;;74.78;34.10;;;11.60;99.90;;;;;;5124701;27;20031;-83
2021/05/12 03:58:58;;;;;;;78.00;34.10;;;11.50;99.90;;;;;;5131364;27;20042;-84
2021/05/12 04:01:23;;;;;;;81.55;35.30;;;11.50;99.90;;;;;;5126569;27;20094;-81
2021/05/12 04:03:49;;;;;;;79.35;34.47;;;11.40;99.90;;;;;;5153523;27;20034;-81
2021/05/12 04:06:15;;;;;;;81.20;34.58;;;11.50;99.90;;;;;;5128380;27;20453;-81
2021/05/12 04:08:40;;;;;;;74.95;33.00;;;11.50;99.90;;;;;;5153857;27;20058;-81
2021/05/12 04:11:06;;;;;;;79.43;34.35;;;11.50;99.90;;;;;;5156178;27;20423;-81
2021/05/12 04:13:32;;;;;;;81.53;34.75;;;11.50;99.90;;;;;;5127346;27;20039;-81
2021/05/12 04:15:58;;;;;;;72.57;34.42;;;11.50;99.90;;;;;;5125794;27;20041;-81
2021/05/12 04:18:26;;;;;;;73.55;33.45;;;11.50;99.90;;;;;;5128885;27;20100;-79
2021/05/12 04:20:52;;;;;;;72.97;32.58;;;11.50;99.90;;;;;;5128889;27;20184;-80
2021/05/12 04:23:18;;;;;;;76.53;32.17;;;11.50;99.90;;;;;;5130596;27;20154;-80
2021/05/12 04:25:44;;;;;;;70.32;33.55;;;11.50;99.90;;;;;;5146633;27;22026;-81
2021/05/12 04:28:10;;;;;;;75.93;32.00;;;11.50;99.90;;;;;;5128513;27;20606;-82
2021/05/12 04:30:36;;;;;;;77.60;33.90;;;11.50;99.90;;;;;;5143563;27;20477;-82
2021/05/12 04:33:05;;;;;;;67.82;31.48;;;11.60;99.90;;;;;;5134584;27;20076;-83
2021/05/12 04:35:31;;;;;;;68.10;31.27;;;11.40;99.90;;;;;;5126899;27;20470;-83
2021/05/12 04:37:56;;;;;;;61.60;30.85;;;11.50;99.90;;;;;;5116513;27;20035;-82
2021/05/12 04:40:23;;;;;;;71.40;31.75;;;11.60;99.90;;;;;;5142917;27;20454;-83
2021/05/12 04:42:49;;;;;;;74.43;32.50;;;11.50;99.90;;;;;;5112664;27;20077;-83
2021/05/12 04:45:16;;;;;;;58.50;31.77;;;11.50;99.90;;;;;;5126364;27;20500;-83
2021/05/12 04:47:43;;;;;;;55.53;30.55;;;11.60;99.90;;;;;;5126647;27;20050;-82
2021/05/12 04:50:10;;;;;;;63.38;31.25;;;11.50;99.90;;;;;;5105212;27;20039;-82
2021/05/12 04:52:36;;;;;;;60.08;30.67;;;11.50;99.90;;;;;;5148841;27;20046;-83
2021/05/12 04:55:02;;;;;;;58.97;29.67;;;11.60;99.90;;;;;;5129340;27;20113;-82
2021/05/12 04:57:28;;;;;;;54.60;28.70;;;11.70;99.90;;;;;;5129773;27;20039;-83
2021/05/12 04:59:54;;;;;;;63.47;31.02;;;11.70;99.90;;;;;;5126870;27;20461;-83
2021/05/12 05:02:19;;;;;;;43.13;23.92;;;11.80;99.90;;;;;;5107027;27;20050;-81
2021/05/12 05:04:47;;;;;;;42.72;24.73;;;12.00;99.90;;;;;;5149533;27;20035;-84
2021/05/12 05:07:13;;;;;;;41.92;24.60;;;12.10;99.90;;;;;;5125723;27;20035;-83
2021/05/12 05:09:38;;;;;;;43.90;25.38;;;12.10;99.90;;;;;;5157607;27;20467;-84
2021/05/12 05:12:05;;;;;;;39.28;21.92;;;12.10;99.90;;;;;;5135835;27;20034;-83
2021/05/12 05:14:30;;;;;;;38.78;21.63;;;12.10;99.90;;;;;;5126257;27;20103;-84
2021/05/12 05:17:15;;;;;;;35.60;21.95;;;12.10;99.90;;;;;;5140104;27;20467;-83
2021/05/12 05:19:41;;;;;;;;;;;12.20;99.90;;;;;;5138075;27;20056;-84
2021/05/12 05:22:07;;;;;;;30.52;20.02;;;12.20;99.90;;;;;;5125909;27;19915;-85
2021/05/12 05:24:34;;;;;;;34.45;21.23;;;12.20;99.90;;;;;;5117969;27;20038;-84
2021/05/12 05:26:59;;;;;;;27.67;20.38;;;12.30;99.90;;;;;;5122244;27;20034;-82
2021/05/12 05:29:25;;;;;;;31.85;19.83;;;12.20;99.90;;;;;;5121318;27;20043;-82
2021/05/12 05:31:51;;;;;;;29.15;20.42;;;12.40;99.90;;;;;;5123110;27;20066;-81
2021/05/12 05:34:17;;;;;;;29.70;20.02;;;12.60;99.90;;;;;;5112638;27;20050;-81
2021/05/12 05:36:45;;;;;;;26.02;19.70;;;12.50;99.90;;;;;;5116331;27;20458;-79
2021/05/12 05:39:11;;;;;;;27.58;19.00;;;12.70;99.90;;;;;;5102561;27;20061;-83
2021/05/12 05:41:37;;;;;;;28.85;19.38;;;12.70;99.90;;;;;;5106831;28;20103;-83
2021/05/12 05:44:03;;;;;;;23.77;17.88;;;12.70;99.90;;;;;;5122466;27;20077;-81
2021/05/12 05:46:29;;;;;;;24.02;18.45;;;12.70;99.90;;;;;;5124254;27;20035;-79
2021/05/12 05:48:54;;;;;;;25.73;17.95;;;12.80;99.90;;;;;;5119748;27;20050;-79
2021/05/12 05:51:22;;;;;;;25.35;17.70;;;12.70;99.90;;;;;;5118775;27;20038;-79
2021/05/12 05:53:49;;;;;;;20.55;15.32;;;12.80;99.90;;;;;;5106843;27;20054;-79
2021/05/12 05:56:15;;;;;;;17.63;14.20;;;12.80;99.90;;;;;;5094026;27;20124;-81
2021/05/12 05:58:41;;;;;;;18.15;12.85;;;12.90;99.90;;;;;;5104638;27;20039;-82
2021/05/12 06:01:07;;;;;;;19.73;14.20;;;12.60;99.90;;;;;;5109841;27;20502;-82
2021/05/12 06:03:44;;;;;;;19.70;14.27;;;12.80;99.90;;;;;;5105298;27;20063;-81
2021/05/12 06:06:10;;;;;;;19.20;12.80;;;12.80;99.90;;;;;;5103170;27;20560;-82
2021/05/12 06:08:41;;;;;;;17.77;13.25;;;12.90;99.90;;;;;;5106602;27;20035;-81
2021/05/12 06:11:09;;;;;;;14.60;11.52;;;12.80;99.90;;;;;;5100962;27;20046;-82
2021/05/12 06:13:35;;;;;;;19.45;11.98;;;12.90;99.90;;;;;;5104931;27;20037;-82
2021/05/12 06:16:03;;;;;;;16.27;11.27;;;12.80;99.90;;;;;;5123404;27;20079;-82
2021/05/12 06:18:29;;;;;;;13.75;10.18;;;12.80;99.90;;;;;;5087994;27;20063;-81
2021/05/12 06:20:56;;;;;;;13.57;9.65;;;12.70;99.90;;;;;;5095016;28;20053;-80
2021/05/12 06:23:22;;;;;;;17.10;10.38;;;12.70;99.90;;;;;;5103156;27;20106;-81
2021/05/12 06:25:52;;;;;;;20.83;10.82;;;12.70;99.90;;;;;;5104586;27;20044;-82
2021/05/12 06:28:19;;;;;;;14.13;9.13;;;12.70;99.90;;;;;;5104058;27;20085;-82
2021/05/12 06:30:49;;;;;;;17.83;9.45;;;12.70;99.90;;;;;;5088425;27;20050;-82
2021/05/12 06:33:16;;;;;;;15.85;9.10;;;12.70;99.90;;;;;;5102700;28;20043;-82
2021/05/12 06:35:42;;;;;;;15.80;9.43;;;12.70;99.90;;;;;;5105864;28;20039;-82
2021/05/12 06:38:08;;;;;;;19.98;9.38;;;12.80;99.90;;;;;;5104469;28;20028;-83
2021/05/12 06:40:36;;;;;;;12.93;8.25;;;12.80;99.90;;;;;;5088169;28;20053;-82
2021/05/12 06:43:02;;;;;;;15.10;7.38;;;12.90;99.90;;;;;;5112948;28;20039;-82
2021/05/12 06:45:28;;;;;;;18.25;7.70;;;13.00;99.90;;;;;;5114098;28;20371;-82
2021/05/12 06:47:54;;;;;;;14.48;6.20;;;13.00;99.90;;;;;;5114919;28;20087;-83
2021/05/12 06:50:29;;;;;;;;;;;13.00;99.90;;;;;;5111679;27;20387;-83
2021/05/12 06:52:57;;;;;;;14.13;6.32;;;13.10;99.90;;;;;;5128242;27;20018;-82
2021/05/12 06:55:24;;;;;;;15.98;5.63;;;13.10;99.90;;;;;;5136299;27;20409;-82
2021/05/12 06:57:51;;;;;;;11.35;5.75;;;13.10;99.90;;;;;;5136944;27;20039;-82
2021/05/12 07:00:18;;;;;;;10.77;5.40;;;13.20;99.90;;;;;;5136745;27;20031;-82
2021/05/12 07:02:44;;;;;;;13.90;5.60;;;13.20;99.90;;;;;;5108199;28;20040;-81
2021/05/12 07:05:15;;;;;;;9.63;4.85;;;13.30;99.90;;;;;;5116100;28;20039;-83
2021/05/12 07:07:44;;;;;;;9.40;4.80;;;13.30;99.90;;;;;;5110826;27;20043;-82
2021/05/12 07:10:12;;;;;;;12.02;4.20;;;13.40;99.90;;;;;;5117162;27;20091;-82
2021/05/12 07:12:38;;;;;;;9.48;4.03;;;13.50;99.90;;;;;;5126581;27;20040;-82
2021/05/12 07:15:07;;;;;;;10.82;3.92;;;13.30;99.90;;;;;;5116044;27;20141;-82
2021/05/12 07:18:23;;;;;;;10.95;4.20;;;13.30;99.90;;;;;;5125391;27;20039;-81
2021/05/12 07:20:49;;;;;;;12.88;3.92;;;13.30;99.90;;;;;;5116714;28;20130;-81
2021/05/12 07:23:23;;;;;;;13.07;3.67;;;13.40;99.90;;;;;;5093579;28;20566;-81
2021/05/12 07:25:49;;;;;;;15.45;4.50;;;13.40;99.90;;;;;;5091050;28;20035;-81
2021/05/12 07:28:15;;;;;;;11.63;4.13;;;13.40;99.90;;;;;;5089741;28;20396;-81
2021/05/12 07:30:43;;;;;;;15.88;4.18;;;13.50;99.90;;;;;;5093009;28;20104;-82
2021/05/12 07:33:09;;;;;;;21.02;4.40;;;13.50;99.90;;;;;;5095243;28;20059;-82
2021/05/12 07:35:36;;;;;;;13.90;4.20;;;13.50;99.90;;;;;;5084053;28;20343;-83
2021/05/12 07:38:10;;;;;;;11.93;4.00;;;13.50;99.90;;;;;;5092762;28;20036;-83
2021/05/12 07:40:42;;;;;;;16.00;4.70;;;13.70;99.90;;;;;;5106635;28;20067;-80
2021/05/12 07:43:10;;;;;;;11.30;3.90;;;13.70;99.90;;;;;;5079915;28;20063;-83
2021/05/12 07:45:41;;;;;;;11.80;4.18;;;13.70;99.90;;;;;;5095995;28;20024;-81
2021/05/12 07:48:09;;;;;;;14.77;4.88;;;13.70;99.90;;;;;;5100611;28;20028;-79
2021/05/12 07:50:36;;;;;;;14.00;3.92;;;13.80;99.90;;;;;;5100617;28;20077;-81
2021/05/12 07:53:03;;;;;;;8.50;2.42;;;13.80;99.90;;;;;;5111466;28;20114;-79
2021/05/12 07:55:31;;;;;;;6.30;2.67;;;13.90;99.90;;;;;;5081938;28;20079;-78
2021/05/12 07:58:00;;;;;;;11.30;2.58;;;13.80;99.90;;;;;;5115837;27;20035;-77
2021/05/12 08:00:27;;;;;;;8.13;2.42;;;14.00;99.90;;;;;;5114572;27;20036;-79
2021/05/12 08:03:06;;;;;;;9.05;2.10;;;13.90;99.90;;;;;;5103801;28;20480;-81
2021/05/12 08:05:35;;;;;;;11.35;2.55;;;14.00;99.90;;;;;;5085445;28;20048;-81
2021/05/12 08:08:21;;;;;;;23.88;6.28;;;14.00;99.90;;;;;;5082641;28;20040;-81
2021/05/12 08:10:53;;;;;;;28.35;7.40;;;14.00;99.90;;;;;;5083946;28;20046;-82
2021/05/12 08:13:19;;;;;;;18.73;2.42;;;14.10;99.90;;;;;;5108178;28;20081;-82
2021/05/12 08:15:50;;;;;;;8.68;2.38;;;14.10;99.90;;;;;;5093984;28;20609;-82
2021/05/12 08:18:15;;;;;;;8.00;2.30;;;14.20;99.90;;;;;;5066425;28;20134;-82
2021/05/12 08:20:47;;;;;;;6.90;1.60;;;14.20;99.90;;;;;;5110936;28;20035;-82
2021/05/12 08:23:19;;;;;;;8.32;2.38;;;14.40;99.90;;;;;;5093735;28;20126;-81
2021/05/12 08:25:47;;;;;;;11.63;1.88;;;14.20;99.90;;;;;;5089223;28;20506;-81
2021/05/12 08:28:13;;;;;;;8.38;1.75;;;14.30;99.90;;;;;;5086475;28;20073;-81
2021/05/12 08:30:45;;;;;;;8.93;2.20;;;14.40;99.90;;;;;;5094417;28;20035;-81
2021/05/12 08:33:12;;;;;;;11.25;2.08;;;14.50;99.90;;;;;;5060564;28;20128;-81
2021/05/12 08:35:58;;;;;;;5.68;1.40;;;14.50;99.90;;;;;;5078920;28;20039;-81
2021/05/12 08:38:25;;;;;;;8.98;1.73;;;14.60;99.90;;;;;;5109430;28;20031;-82
2021/05/12 08:40:57;;;;;;;7.93;1.50;;;14.70;99.90;;;;;;5072396;28;20066;-81
2021/05/12 08:43:27;;;;;;;9.80;1.67;;;14.80;99.90;;;;;;5110190;28;20036;-80
2021/05/12 08:45:54;;;;;;;5.78;1.35;;;14.80;99.90;;;;;;5085242;28;20032;-82
2021/05/12 08:48:23;;;;;;;9.35;2.00;;;14.80;99.90;;;;;;5089957;28;20147;-82
2021/05/12 08:50:49;;;;;;;8.60;2.17;;;14.70;99.90;;;;;;5110902;28;20383;-82
2021/05/12 08:53:16;;;;;;;8.77;1.77;;;14.80;99.90;;;;;;5086337;28;20046;-81
2021/05/12 08:55:42;;;;;;;8.57;1.60;;;14.90;99.90;;;;;;5084530;28;20050;-81
2021/05/12 08:58:08;;;;;;;5.90;1.35;;;14.90;99.90;;;;;;5068882;28;20046;-82
2021/05/12 09:00:34;;;;;;;5.68;1.33;;;14.90;99.90;;;;;;5112318;27;20043;-80
2021/05/12 09:03:02;;;;;;;7.55;1.60;;;15.00;99.90;;;;;;5123437;27;20053;-81
2021/05/12 09:05:29;;;;;;;5.07;1.40;;;15.00;99.90;;;;;;5113801;28;20035;-80
2021/05/12 09:07:56;;;;;;;9.32;2.00;;;15.20;99.90;;;;;;5092258;28;20448;-80
2021/05/12 09:10:22;;;;;;;7.43;1.75;;;15.30;99.90;;;;;;5107322;28;20031;-81
2021/05/12 09:12:54;;;;;;;7.88;1.65;;;15.30;99.90;;;;;;5093845;28;20463;-79
2021/05/12 09:15:23;;;;;;;9.43;1.50;;;15.50;99.90;;;;;;5095187;28;20547;-79
2021/05/12 09:17:51;;;;;;;8.77;1.90;;;15.50;99.90;;;;;;5093634;28;20035;-81
2021/05/12 09:20:20;;;;;;;9.10;1.80;;;15.50;99.90;;;;;;5107403;27;20554;-81
2021/05/12 09:22:48;;;;;;;8.65;2.00;;;15.40;99.90;;;;;;5088956;27;20455;-81
2021/05/12 09:25:17;;;;;;;12.43;2.20;;;15.50;99.90;;;;;;5104221;27;20035;-82
2021/05/12 09:27:51;;;;;;;8.85;1.75;;;15.60;99.90;;;;;;5114294;27;20100;-80
2021/05/12 09:30:23;;;;;;;14.90;2.10;;;15.70;99.90;;;;;;5102573;27;20035;-80
2021/05/12 09:32:49;;;;;;;15.23;2.42;;;15.90;99.90;;;;;;5106984;27;20031;-81
2021/05/12 09:35:16;;;;;;;8.15;2.30;;;16.10;99.90;;;;;;5082794;28;20047;-80
2021/05/12 09:37:44;;;;;;;12.10;2.15;;;16.30;99.90;;;;;;5126934;27;20110;-80
2021/05/12 09:40:12;;;;;;;10.07;1.63;;;16.10;99.90;;;;;;5105294;28;20462;-81
2021/05/12 09:42:39;;;;;;;10.95;2.05;;;16.00;99.90;;;;;;5127426;27;20440;-84
2021/05/12 09:45:16;;;;;;;19.02;2.55;;;16.00;99.90;;;;;;5094281;28;20027;-82
2021/05/12 09:47:44;;;;;;;8.70;2.00;;;15.80;99.90;;;;;;5093572;27;20482;-81
2021/05/12 09:50:23;;;;;;;10.40;2.30;;;15.80;99.90;;;;;;5065083;27;20067;-80
2021/05/12 09:52:58;;;;;;;13.35;2.20;;;15.70;99.90;;;;;;5093520;28;20066;-79
2021/05/12 09:55:40;;;;;;;14.35;2.28;;;15.70;99.90;;;;;;5101410;27;20027;-80
2021/05/12 09:58:22;;;;;;;11.77;2.30;;;15.60;99.90;;;;;;5133554;27;20042;-79
2021/05/12 10:00:51;;;;;;;12.15;2.30;;;15.70;99.90;;;;;;5114855;27;20047;-79
2021/05/12 10:03:24;;;;;;;13.82;2.40;;;15.80;99.90;;;;;;5113981;27;20058;-79
2021/05/12 10:05:58;;;;;;;17.98;2.88;;;15.80;99.90;;;;;;5112498;28;20035;-82
2021/05/12 10:08:30;;;;;;;13.80;2.20;;;16.10;99.90;;;;;;5076594;28;20524;-81
2021/05/12 10:10:57;;;;;;;10.35;2.40;;;16.40;99.90;;;;;;5100534;28;20063;-80
2021/05/12 10:13:24;;;;;;;9.82;2.28;;;16.30;99.90;;;;;;5111300;27;20031;-82
2021/05/12 10:15:52;;;;;;;14.13;2.20;;;16.30;99.90;;;;;;5093095;27;20057;-79
2021/05/12 10:18:17;;;;;;;13.32;2.20;;;16.20;99.90;;;;;;5112586;28;20031;-82
2021/05/12 10:20:44;;;;;;;12.55;2.47;;;16.20;99.90;;;;;;5105602;27;20417;-81
2021/05/12 10:23:10;;;;;;;11.20;2.47;;;16.30;99.90;;;;;;5114804;28;20046;-80
2021/05/12 10:25:39;;;;;;;13.05;2.33;;;16.60;99.90;;;;;;5132637;27;20497;-81
2021/05/12 10:28:08;;;;;;;13.25;2.78;;;16.90;99.90;;;;;;5113883;28;20458;-81
2021/05/12 10:30:35;;;;;;;14.15;2.60;;;17.00;99.90;;;;;;5107028;28;20112;-81
2021/05/12 10:33:01;;;;;;;11.20;2.20;;;17.00;99.90;;;;;;5094273;28;20093;-79
2021/05/12 10:35:32;;;;;;;16.23;2.70;;;17.10;99.90;;;;;;5109792;28;20043;-81
2021/05/12 10:37:58;;;;;;;11.00;2.42;;;17.20;99.90;;;;;;5113894;28;20051;-81
2021/05/12 10:40:27;;;;;;;12.38;2.67;;;17.60;99.90;;;;;;5113464;27;20047;-82
2021/05/12 10:43:06;;;;;;;14.30;2.13;;;17.80;99.90;;;;;;5077461;28;20105;-80
2021/05/12 10:45:59;;;;;;;14.75;2.65;;;17.30;99.90;;;;;;5109017;28;20063;-82
2021/05/12 10:48:39;;;;;;;13.25;2.38;;;17.20;99.90;;;;;;5130454;27;20474;-80
2021/05/12 10:51:09;;;;;;;12.70;2.53;;;17.30;99.90;;;;;;5130859;28;20035;-80
2021/05/12 10:53:45;;;;;;;15.45;2.60;;;17.50;99.90;;;;;;5116037;28;20044;-80
2021/05/12 10:56:13;;;;;;;9.48;2.30;;;17.30;99.90;;;;;;5075350;28;20044;-83
2021/05/12 10:58:57;;;;;;;13.10;3.08;;;17.30;99.90;;;;;;5094459;28;20047;-82
2021/05/12 11:01:25;;;;;;;10.88;2.83;;;17.60;99.90;;;;;;5095989;28;20053;-79
2021/05/12 11:03:50;;;;;;;14.98;2.58;;;17.80;99.90;;;;;;5128052;27;20030;-79
2021/05/12 11:06:21;;;;;;;11.25;2.40;;;17.50;99.90;;;;;;5130945;28;20538;-81
2021/05/12 11:09:08;;;;;;;15.48;3.03;;;17.50;99.90;;;;;;5122452;28;20031;-83
2021/05/12 11:11:54;;;;;;;17.77;3.05;;;17.40;99.90;;;;;;5124183;28;20047;-82
2021/05/12 11:14:32;;;;;;;10.32;2.65;;;17.30;99.90;;;;;;5100826;28;20064;-78
2021/05/12 11:17:11;;;;;;;15.25;2.60;;;17.60;99.90;;;;;;5119439;27;20039;-81
2021/05/12 11:19:40;;;;;;;14.95;2.67;;;17.40;99.90;;;;;;5104735;27;20081;-81
2021/05/12 11:22:46;;;;;;;16.42;2.60;;;17.30;99.90;;;;;;5103951;27;20169;-82
2021/05/12 11:33:36;;;;;;;13.63;2.80;;;16.90;99.90;;;;;;5061922;28;20056;-81
2021/05/12 11:36:16;;;;;;;13.55;2.63;;;17.00;99.90;;;;;;5048757;28;20503;-81
2021/05/12 11:38:42;;;;;;;12.30;2.42;;;16.80;99.90;;;;;;5050714;28;20040;-82
2021/05/12 11:41:09;;;;;;;16.92;2.70;;;16.60;99.90;;;;;;5071497;28;20060;-82
2021/05/12 11:43:56;;;;;;;11.52;2.33;;;17.30;99.90;;;;;;5054202;28;20154;-82
2021/05/12 11:46:25;;;;;;;13.07;2.63;;;17.70;99.90;;;;;;5070028;28;20078;-83
2021/05/12 11:48:51;;;;;;;10.27;2.30;;;18.00;99.90;;;;;;5071569;28;20048;-83
2021/05/12 11:51:30;;;;;;;11.27;2.28;;;18.50;99.50;;;;;;5053245;28;20056;-84
2021/05/12 11:53:57;;;;;;;15.00;3.08;;;18.40;99.70;;;;;;5068793;28;20119;-83
2021/05/12 11:56:23;;;;;;;9.13;2.30;;;18.00;99.80;;;;;;5071367;28;20089;-83
2021/05/12 11:59:02;;;;;;;14.13;2.38;;;17.90;98.90;;;;;;5065271;28;20040;-83
2021/05/12 12:01:30;;;;;;;11.27;2.10;;;17.80;98.60;;;;;;5053819;28;20519;-83
2021/05/12 12:04:12;;;;;;;10.38;2.30;;;18.00;97.70;;;;;;5054501;28;20040;-82
2021/05/12 12:06:43;;;;;;;8.50;2.08;;;17.70;98.20;;;;;;5072063;27;20048;-80
2021/05/12 12:09:09;;;;;;;15.48;2.67;;;17.60;98.70;;;;;;5125470;27;20083;-81
2021/05/12 12:11:35;;;;;;;11.70;2.05;;;17.20;99.00;;;;;;5103934;27;20453;-81
2021/05/12 12:14:03;;;;;;;11.20;2.10;;;17.70;99.20;;;;;;5125946;27;20061;-81
2021/05/12 12:16:30;;;;;;;10.80;2.55;;;18.10;98.70;;;;;;5104264;27;20038;-82
2021/05/12 12:18:56;;;;;;;12.30;2.80;;;18.20;99.00;;;;;;5109369;27;20379;-83
2021/05/12 12:21:30;;;;;;;12.55;2.47;;;18.60;98.80;;;;;;5104190;27;20066;-82
2021/05/12 12:24:02;;;;;;;9.38;2.45;;;18.50;97.30;;;;;;5107533;27;20119;-81
2021/05/12 12:26:30;;;;;;;13.13;2.47;;;18.20;97.70;;;;;;5134828;27;20069;-81
2021/05/12 12:29:05;;;;;;;13.35;2.42;;;18.40;98.10;;;;;;5099558;27;20036;-82
2021/05/12 12:31:52;;;;;;;9.18;2.17;;;18.90;98.40;;;;;;5095989;28;20051;-84
2021/05/12 12:34:34;;;;;;;10.30;2.13;;;18.80;96.00;;;;;;5088602;27;20070;-82
2021/05/12 12:37:11;;;;;;;10.60;2.15;;;19.00;96.00;;;;;;5104552;27;20047;-83
2021/05/12 12:40:07;;;;;;;8.30;2.20;;;18.70;95.10;;;;;;5092341;27;20055;-84
2021/05/12 12:42:44;;;;;;;9.93;2.20;;;19.10;94.80;;;;;;5127711;27;20076;-82
2021/05/12 12:45:26;;;;;;;8.32;2.05;;;19.20;93.10;;;;;;5102312;27;20232;-83
2021/05/12 12:47:51;;;;;;;9.45;2.30;;;19.10;94.40;;;;;;5117669;27;20368;-81
2021/05/12 12:50:19;;;;;;;9.93;2.53;;;19.30;94.70;;;;;;5102945;27;20046;-81